Detall de PIREP

Printer-friendly versionPDF version

[2013/02/17 06:23:00]
Flight IATA:CT0001
Pilot Number:041
Company ICAO:CAT
Aircraft Type:A320/E
PAX:100
Departing Airport: LELC
Destination Airport: LEGE
Alternate Airport:LEPA
Online: VATSIM
Route:DCT ALT B46 MITOS N608 SOPET B28 EBROX DCT LATRO H110 MAMUK DCT
Flight Level:F180
No Slew and time accel
No pause
Crash detect
Detect pilot in Cockpit between each 30 and 45 minutes
06:23 Zero fuel Weight: 129930 Lbs, Fuel Weight: 11470 Lbs
06:23 VATSIM:LELC 170600Z VRB01KT 4000 BR BKN020 07/06 Q1016 NOSIG
06:23 VATSIM:LEGE 170600Z 00000KT 9999 BKN018 08/05 Q1016
06:23 VOICE CATALONIAN
06:29 Parking Brakes off
06:35 Take-off
06:35 Take off Weight: 140486 Lbs
06:35 Wind: 068º @ 001 Knots Heading: 046º
06:35 POS N37º 46´ 55´´ W000º 48´ 11´´
06:35 Flaps:3 at 182 Knots
06:35 Gear Up: 183 Knots
06:35 Flaps:2 at 186 Knots
06:35 Flaps:1 at 195 Knots
06:35 Flaps:0 at 188 Knots
06:41 TOC
06:41 Fuel Weight: 8520 Lb
06:50 Wind:298º@024 Knots Heading: 357º Ground Speed: 364 Knots Altitude 18067 ft
07:05 Wind:310º@014 Knots Heading: 044º Ground Speed: 376 Knots Altitude 18064 ft
07:20 Wind:299º@011 Knots Heading: 013º Ground Speed: 371 Knots Altitude 18077 ft
07:24 TOD
07:24 Fuel Weight: 2656 Lb
07:35 Wind:166º@002 Knots Heading: 142º Ground Speed: 261 Knots Altitude 5889 ft
07:41 Flaps:1 at 200 Knots
07:41 Flaps:2 at 197 Knots
07:41 Flaps:3 at 182 Knots
07:41 Gear Down: 178 Knots
07:41 Flaps:4 at 167 Knots
07:41 Flaps:5 at 166 Knots
07:45 TouchDown:Rate -183 ft/min Speed: 124 Knots
07:45 VATSIM:LEGE 170730Z 02003KT 9999 OVC020 08/04 Q1016
07:45 Land
07:45 Wind:012º@001 Knots
07:45 Heading: 015º
07:45 Flight Duration: 01:10
07:45 Landing Weight: 130389 Lbs
07:45 POS N41º 54´ 16´´ E002º 45´ 42´´
07:48 Parking brakes on
07:48 Block to Block Duration: 01:19
07:48 Final Fuel: 187 Lbls
07:48 Spent Fuel: 11283 Lbls
07:48 Flight Length: 383 NM
07:48 TOD Land Length: 86 NM

Exportar CSV

Powered by Drupal - Modified by Danger4k